Mallet Town, Arkansas
Current Conditions -  °F | °C
As of 11:15 AM on Friday 19 Dec 2014 (Local Time) from KCCA Reporting Station
Haze Haze  
Wind Chill: 41°   Ceiling: 1200
Heat Index: 41°   Visibility: 5mi
Dew Point: 37°   Wind: 0mph
Humidity: 87%   Direction: NA
Pressure: 30.31"   Gusts: NA
Location:  35.2739°N, 92.5381°W
Report Text: KCCA 191715Z AUTO 00000KT 5SM BR OVC012 05/03 A3031 RMK AO2
Loading
Personal Weather Stations






























Interactive Weather Map New forecast layout! Learn more

10-Day Weather Forecast

Advertisements
Track Severe Weather on mobile